createdAt,value
2018-07-19T00:01:16.756Z,26.50
2018-07-19T00:03:45.330Z,26.50
2018-07-19T00:06:13.775Z,26.50
2018-07-19T00:08:42.243Z,26.50
2018-07-19T00:11:10.676Z,26.50
2018-07-19T00:13:39.132Z,26.50
2018-07-19T00:16:07.574Z,26.50
2018-07-19T00:18:36.023Z,26.50
2018-07-19T00:21:04.462Z,26.50
2018-07-19T00:23:32.901Z,26.50
2018-07-19T00:26:01.376Z,26.50
2018-07-19T00:28:29.841Z,26.50
2018-07-19T00:30:58.342Z,26.50
2018-07-19T00:33:26.854Z,26.40
2018-07-19T00:35:55.305Z,26.40
2018-07-19T00:38:24.027Z,26.50
2018-07-19T00:40:52.478Z,26.40
2018-07-19T00:43:20.932Z,26.40
2018-07-19T00:45:49.385Z,26.40
2018-07-19T00:48:17.824Z,26.40
2018-07-19T00:50:46.301Z,26.40
2018-07-19T00:53:14.749Z,26.40
2018-07-19T00:55:43.194Z,26.40
2018-07-19T00:58:11.772Z,26.40
2018-07-19T01:00:40.251Z,26.40
2018-07-19T01:03:08.718Z,26.40
2018-07-19T01:05:37.269Z,26.40
2018-07-19T01:08:06.671Z,26.40
2018-07-19T01:10:36.207Z,26.40
2018-07-19T01:13:04.877Z,26.40
2018-07-19T01:15:33.376Z,26.40
2018-07-19T01:18:01.889Z,26.40
2018-07-19T01:20:30.389Z,26.40
2018-07-19T01:22:58.847Z,26.40
2018-07-19T01:25:27.297Z,26.40
2018-07-19T01:27:55.776Z,26.40
2018-07-19T01:30:24.211Z,26.40
2018-07-19T01:32:52.775Z,26.40
2018-07-19T01:35:21.209Z,26.30
2018-07-19T01:37:49.662Z,26.30
2018-07-19T01:40:18.081Z,26.30
2018-07-19T01:42:46.539Z,26.30
2018-07-19T01:45:15.003Z,26.30
2018-07-19T01:47:43.462Z,26.30
2018-07-19T01:50:12.301Z,26.30
2018-07-19T01:52:40.471Z,26.30
2018-07-19T01:55:09.269Z,26.30
2018-07-19T01:57:38.812Z,26.30
2018-07-19T02:00:08.332Z,26.30
2018-07-19T02:02:37.732Z,26.30
2018-07-19T02:05:07.362Z,26.30
2018-07-19T02:07:36.522Z,26.30
2018-07-19T02:10:06.234Z,26.30
2018-07-19T02:12:34.688Z,26.30
2018-07-19T02:15:03.128Z,26.20
2018-07-19T02:17:31.585Z,26.30
2018-07-19T02:20:00.017Z,26.20
2018-07-19T02:22:28.516Z,26.30
2018-07-19T02:24:56.988Z,26.20
2018-07-19T02:27:25.437Z,26.30
2018-07-19T02:29:53.889Z,26.30
2018-07-19T02:32:22.517Z,26.20
2018-07-19T02:34:50.962Z,26.20
2018-07-19T02:37:20.580Z,26.30
2018-07-19T02:39:49.028Z,26.30
2018-07-19T02:42:17.506Z,26.20
2018-07-19T02:44:45.947Z,26.20
2018-07-19T02:47:14.391Z,26.20
2018-07-19T02:49:43.066Z,26.20
2018-07-19T02:52:11.515Z,26.20
2018-07-19T02:54:39.980Z,26.20
2018-07-19T02:57:08.441Z,26.20
2018-07-19T02:59:37.967Z,26.20
2018-07-19T03:02:07.623Z,26.20
2018-07-19T03:04:37.054Z,26.20
2018-07-19T03:07:06.633Z,26.20
2018-07-19T03:09:35.751Z,26.20
2018-07-19T03:12:04.217Z,26.20
2018-07-19T03:14:32.669Z,26.20
2018-07-19T03:17:01.116Z,26.20
2018-07-19T03:19:29.561Z,26.10
2018-07-19T03:21:58.018Z,26.20
2018-07-19T03:24:26.471Z,26.20
2018-07-19T03:26:54.969Z,26.20
2018-07-19T03:29:23.437Z,26.20
2018-07-19T03:31:51.997Z,26.10
2018-07-19T03:34:20.445Z,26.20
2018-07-19T03:36:48.885Z,26.10
2018-07-19T03:39:17.352Z,26.10
2018-07-19T03:41:45.787Z,26.10
2018-07-19T03:44:14.227Z,26.10
2018-07-19T03:46:42.733Z,26.10
2018-07-19T03:49:11.169Z,26.10
2018-07-19T03:51:40.051Z,26.10
2018-07-19T03:54:08.498Z,26.10
2018-07-19T03:56:37.683Z,26.10
2018-07-19T03:59:06.589Z,26.10
2018-07-19T04:01:35.668Z,26.10
2018-07-19T04:04:04.409Z,26.10
2018-07-19T04:06:32.999Z,26.10
2018-07-19T04:09:01.429Z,26.10
2018-07-19T04:11:29.880Z,26.10
2018-07-19T04:13:58.510Z,26.10
2018-07-19T04:16:27.058Z,26.10
2018-07-19T04:18:55.499Z,26.10
2018-07-19T04:21:23.940Z,26.10
2018-07-19T04:23:52.362Z,26.10
2018-07-19T04:26:20.854Z,26.10
2018-07-19T04:28:49.317Z,26.10
2018-07-19T04:31:17.951Z,26.10
2018-07-19T04:33:46.425Z,26.10
2018-07-19T04:36:14.869Z,26.10
2018-07-19T04:38:43.311Z,26.10
2018-07-19T04:41:12.073Z,26.10
2018-07-19T04:43:40.649Z,26.00
2018-07-19T04:46:09.098Z,26.00
2018-07-19T04:48:38.184Z,26.00
2018-07-19T04:51:07.844Z,26.10
2018-07-19T04:53:37.489Z,26.10
2018-07-19T04:56:06.602Z,26.10
2018-07-19T04:58:35.836Z,26.10
2018-07-19T05:01:04.783Z,26.10
2018-07-19T05:03:33.302Z,26.10
2018-07-19T05:06:01.761Z,26.10
2018-07-19T05:08:30.210Z,26.10
2018-07-19T05:11:00.714Z,26.10
2018-07-19T05:13:29.308Z,26.10
2018-07-19T05:15:57.805Z,26.10
2018-07-19T05:18:26.271Z,26.10
2018-07-19T05:20:54.697Z,26.20
2018-07-19T05:23:23.147Z,26.20
2018-07-19T05:25:51.571Z,26.10
2018-07-19T05:28:20.013Z,26.20
2018-07-19T05:30:48.446Z,26.20
2018-07-19T05:33:16.906Z,26.20
2018-07-19T05:35:45.345Z,26.20
2018-07-19T05:38:13.782Z,26.20
2018-07-19T05:40:42.230Z,26.20
2018-07-19T05:43:10.709Z,26.20
2018-07-19T05:45:39.142Z,26.30
2018-07-19T05:48:08.954Z,26.30
2018-07-19T05:50:39.265Z,26.30
2018-07-19T05:53:08.869Z,26.30
2018-07-19T05:55:38.380Z,26.30
2018-07-19T05:58:07.613Z,26.30
2018-07-19T06:00:36.577Z,26.30
2018-07-19T06:03:05.311Z,26.40
2018-07-19T06:05:33.743Z,26.40
2018-07-19T06:08:02.255Z,26.40
2018-07-19T06:10:30.738Z,26.50
2018-07-19T06:12:59.248Z,26.40
2018-07-19T06:15:27.695Z,26.50
2018-07-19T06:17:56.279Z,26.50
2018-07-19T06:20:24.774Z,26.50
2018-07-19T06:22:53.374Z,26.50
2018-07-19T06:25:21.846Z,26.50
2018-07-19T06:27:50.292Z,26.50
2018-07-19T06:30:18.873Z,26.60
2018-07-19T06:32:47.350Z,26.60
2018-07-19T06:35:15.921Z,26.60
2018-07-19T06:37:44.369Z,26.60
2018-07-19T06:40:12.843Z,26.60
2018-07-19T06:42:41.303Z,26.70
2018-07-19T06:45:09.759Z,26.70
2018-07-19T06:47:38.193Z,26.70
2018-07-19T06:50:07.451Z,26.70
2018-07-19T06:52:35.744Z,26.70
2018-07-19T06:55:04.250Z,26.70
2018-07-19T06:57:32.725Z,26.80
2018-07-19T07:00:01.300Z,26.80
2018-07-19T07:02:29.736Z,26.80
2018-07-19T07:04:58.257Z,26.90
2018-07-19T07:07:26.693Z,26.90
2018-07-19T07:09:55.140Z,26.90
2018-07-19T07:12:23.583Z,27.00
2018-07-19T07:14:52.060Z,27.00
2018-07-19T07:17:20.483Z,27.00
2018-07-19T07:19:48.920Z,27.00
2018-07-19T07:22:17.374Z,27.10
2018-07-19T07:24:45.812Z,27.10
2018-07-19T07:27:14.379Z,27.10
2018-07-19T07:29:42.851Z,27.10
2018-07-19T07:32:11.288Z,27.10
2018-07-19T07:34:39.742Z,27.10
2018-07-19T07:37:08.181Z,27.10
2018-07-19T07:39:37.969Z,27.10
2018-07-19T07:42:07.579Z,27.10
2018-07-19T07:44:36.616Z,27.20
2018-07-19T07:47:05.745Z,27.20
2018-07-19T07:49:34.191Z,27.20
2018-07-19T07:52:02.660Z,27.10
2018-07-19T07:54:31.125Z,27.20
2018-07-19T07:56:59.599Z,27.30
2018-07-19T07:59:28.105Z,27.20
2018-07-19T08:01:56.565Z,27.20
2018-07-19T08:04:24.982Z,27.30
2018-07-19T08:06:53.413Z,27.30
2018-07-19T08:09:21.865Z,27.30
2018-07-19T08:11:50.294Z,27.30
2018-07-19T08:14:18.744Z,27.30
2018-07-19T08:16:47.184Z,27.30
2018-07-19T08:19:15.645Z,27.30
2018-07-19T08:21:44.149Z,27.30
2018-07-19T08:24:12.553Z,27.30
2018-07-19T08:26:41.056Z,27.30
2018-07-19T08:29:09.529Z,27.30
2018-07-19T08:31:38.736Z,27.30
2018-07-19T08:34:07.273Z,27.30
2018-07-19T08:36:36.526Z,27.30
2018-07-19T08:39:08.070Z,27.30
2018-07-19T08:41:36.583Z,27.40
2018-07-19T08:44:06.165Z,27.30
2018-07-19T08:46:34.617Z,27.30
2018-07-19T08:49:03.112Z,27.30
2018-07-19T08:51:31.570Z,27.40
2018-07-19T08:54:00.141Z,27.30
2018-07-19T08:56:28.606Z,27.40
2018-07-19T08:58:57.043Z,27.40
2018-07-19T09:01:25.639Z,27.40
2018-07-19T09:03:54.089Z,27.40
2018-07-19T09:06:22.592Z,27.40
2018-07-19T09:08:51.031Z,27.40
2018-07-19T09:11:19.480Z,27.40
2018-07-19T09:13:48.231Z,27.40
2018-07-19T09:16:16.671Z,27.40
2018-07-19T09:18:45.117Z,27.40
2018-07-19T09:21:13.565Z,27.50
2018-07-19T09:23:42.017Z,27.50
2018-07-19T09:26:10.754Z,27.50
2018-07-19T09:28:39.215Z,27.50
2018-07-19T09:31:08.835Z,27.50
2018-07-19T09:33:38.730Z,27.50
2018-07-19T09:36:07.208Z,27.50
2018-07-19T09:38:35.816Z,27.50
2018-07-19T09:41:04.196Z,27.50
2018-07-19T09:43:32.747Z,27.50
2018-07-19T09:46:01.197Z,27.60
2018-07-19T09:48:29.644Z,27.60
2018-07-19T09:50:58.089Z,27.60
2018-07-19T09:53:26.751Z,27.70
2018-07-19T09:55:55.228Z,27.70
2018-07-19T09:58:23.685Z,27.80
2018-07-19T10:00:57.393Z,27.80
2018-07-19T10:03:25.848Z,27.90
2018-07-19T10:05:54.295Z,27.90
2018-07-19T10:08:22.722Z,28.00
2018-07-19T10:10:51.175Z,28.00
2018-07-19T10:13:19.632Z,28.10
2018-07-19T10:15:48.097Z,28.10
2018-07-19T10:18:16.521Z,28.10
2018-07-19T10:20:45.004Z,28.20
2018-07-19T10:23:13.406Z,28.20
2018-07-19T10:25:41.852Z,28.20
2018-07-19T10:28:10.311Z,28.20
2018-07-19T10:30:38.776Z,28.30
2018-07-19T10:33:08.138Z,28.30
2018-07-19T10:35:37.357Z,28.30
2018-07-19T10:38:06.665Z,28.30
2018-07-19T10:40:35.727Z,28.30
2018-07-19T10:43:04.157Z,28.40
2018-07-19T10:45:32.602Z,28.30
2018-07-19T10:48:01.052Z,28.40
2018-07-19T10:50:29.475Z,28.40
2018-07-19T10:52:57.958Z,28.40
2018-07-19T10:55:26.413Z,28.40
2018-07-19T10:57:54.841Z,28.40
2018-07-19T11:00:23.282Z,28.50
2018-07-19T11:02:51.867Z,28.50
2018-07-19T11:05:20.218Z,28.50
2018-07-19T11:07:48.675Z,28.50
2018-07-19T11:10:17.118Z,28.50
2018-07-19T11:12:45.557Z,28.50
2018-07-19T11:15:14.004Z,28.50
2018-07-19T11:17:42.423Z,28.50
2018-07-19T11:20:10.860Z,28.50
2018-07-19T11:22:39.453Z,28.60
2018-07-19T11:25:08.593Z,28.60
2018-07-19T11:27:38.121Z,28.60
2018-07-19T11:30:07.274Z,28.60
2018-07-19T11:32:35.853Z,28.60
2018-07-19T11:35:04.283Z,28.60
2018-07-19T11:37:32.711Z,28.60
2018-07-19T11:40:01.161Z,28.70
2018-07-19T11:42:29.627Z,28.70
2018-07-19T11:44:58.082Z,28.70
2018-07-19T11:47:26.510Z,28.70
2018-07-19T11:49:54.972Z,28.70
2018-07-19T11:52:23.420Z,28.70
2018-07-19T11:54:51.837Z,28.70
2018-07-19T11:57:20.541Z,28.70
2018-07-19T11:59:48.970Z,28.70
2018-07-19T12:02:17.406Z,28.70
2018-07-19T12:04:45.887Z,28.70
2018-07-19T12:07:14.340Z,28.70
2018-07-19T12:09:42.772Z,28.70
2018-07-19T12:12:11.203Z,28.70
2018-07-19T12:14:39.635Z,28.70
2018-07-19T12:17:09.465Z,28.70
2018-07-19T12:19:38.525Z,28.80
2018-07-19T12:22:08.011Z,28.80
2018-07-19T12:24:37.621Z,28.80
2018-07-19T12:27:06.646Z,28.80
2018-07-19T12:29:35.775Z,28.80
2018-07-19T12:32:04.365Z,28.80
2018-07-19T12:34:33.014Z,28.80
2018-07-19T12:37:01.427Z,28.80
2018-07-19T12:39:29.868Z,28.80
2018-07-19T12:41:58.304Z,28.80
2018-07-19T12:44:26.729Z,28.90
2018-07-19T12:46:55.435Z,28.90
2018-07-19T12:49:23.870Z,28.90
2018-07-19T12:51:52.301Z,28.90
2018-07-19T12:54:20.746Z,28.90
2018-07-19T12:56:49.180Z,28.90
2018-07-19T12:59:17.627Z,28.90
2018-07-19T13:01:46.054Z,28.90
2018-07-19T13:04:14.471Z,28.90
2018-07-19T13:06:42.922Z,28.90
2018-07-19T13:09:11.364Z,28.90
2018-07-19T13:11:39.827Z,28.90
2018-07-19T13:14:08.275Z,28.90
2018-07-19T13:16:37.387Z,28.90
2018-07-19T13:19:06.810Z,28.90
2018-07-19T13:21:35.744Z,28.90
2018-07-19T13:24:04.302Z,28.90
2018-07-19T13:26:32.838Z,28.90
2018-07-19T13:29:01.296Z,29.00
2018-07-19T13:31:29.734Z,29.00
2018-07-19T13:33:58.385Z,29.00
2018-07-19T13:36:26.830Z,29.00
2018-07-19T13:38:55.278Z,29.00
2018-07-19T13:41:23.709Z,29.00
2018-07-19T13:43:52.152Z,29.00
2018-07-19T13:46:20.606Z,29.00
2018-07-19T13:48:49.036Z,29.00
2018-07-19T13:51:17.203Z,29.00
2018-07-19T13:54:18.945Z,29.00
2018-07-19T13:56:47.457Z,28.90
2018-07-19T13:59:16.740Z,28.90
2018-07-19T14:01:45.182Z,28.90
2018-07-19T14:04:13.647Z,28.90
2018-07-19T14:06:42.099Z,28.90
2018-07-19T14:09:12.232Z,29.00
2018-07-19T14:11:40.673Z,29.00
2018-07-19T14:14:09.373Z,29.00
2018-07-19T14:16:38.368Z,29.00
2018-07-19T14:19:07.901Z,29.00
2018-07-19T14:21:36.578Z,29.00
2018-07-19T14:24:05.281Z,29.00
2018-07-19T14:26:33.727Z,29.00
2018-07-19T14:29:02.199Z,29.00
2018-07-19T14:31:30.633Z,29.00
2018-07-19T14:33:59.125Z,29.00
2018-07-19T14:36:27.685Z,29.00
2018-07-19T14:38:56.176Z,29.00
2018-07-19T14:41:24.607Z,29.00
2018-07-19T14:43:53.056Z,29.00
2018-07-19T14:46:21.794Z,29.00
2018-07-19T14:48:50.309Z,29.00
2018-07-19T14:51:18.749Z,29.00
2018-07-19T14:53:47.188Z,29.00
2018-07-19T14:56:15.638Z,29.00
2018-07-19T14:58:44.173Z,29.00
2018-07-19T15:01:12.590Z,29.00
2018-07-19T15:03:42.369Z,29.00
2018-07-19T15:06:11.977Z,28.90
2018-07-19T15:08:40.633Z,29.00
2018-07-19T15:11:09.065Z,28.90
2018-07-19T15:13:38.345Z,29.00
2018-07-19T15:16:07.986Z,29.00
2018-07-19T15:18:37.490Z,29.00
2018-07-19T15:21:06.597Z,28.90
2018-07-19T15:23:35.717Z,28.90
2018-07-19T15:26:04.155Z,28.90
2018-07-19T15:28:32.711Z,28.90
2018-07-19T15:31:04.115Z,28.90
2018-07-19T15:33:33.766Z,28.90
2018-07-19T15:36:02.235Z,28.90
2018-07-19T15:38:30.676Z,28.90
2018-07-19T15:40:59.091Z,28.90
2018-07-19T15:43:27.770Z,28.90
2018-07-19T15:45:55.931Z,28.90
2018-07-19T15:48:25.327Z,28.90
2018-07-19T15:50:53.769Z,28.90
2018-07-19T15:53:22.253Z,28.90
2018-07-19T15:55:50.711Z,28.90
2018-07-19T15:58:19.149Z,28.90
2018-07-19T16:00:47.593Z,28.90
2018-07-19T16:03:16.128Z,28.90
2018-07-19T16:05:44.596Z,28.90
2018-07-19T16:08:13.032Z,28.90
2018-07-19T16:10:41.489Z,28.90
2018-07-19T16:13:09.654Z,28.80
2018-07-19T16:15:38.381Z,28.80
2018-07-19T16:18:07.995Z,28.80
2018-07-19T16:20:37.168Z,28.80
2018-07-19T16:23:05.825Z,28.80
2018-07-19T16:25:34.245Z,28.80
2018-07-19T16:28:02.817Z,28.80
2018-07-19T16:30:31.277Z,28.80
2018-07-19T16:32:59.719Z,28.70
2018-07-19T16:35:28.298Z,28.70
2018-07-19T16:37:56.725Z,28.70
2018-07-19T16:40:25.187Z,28.70
2018-07-19T16:42:53.680Z,28.70
2018-07-19T16:45:22.377Z,28.70
2018-07-19T16:47:50.810Z,28.70
2018-07-19T16:50:19.318Z,28.60
2018-07-19T16:52:47.967Z,28.60
2018-07-19T16:55:16.485Z,28.60
2018-07-19T16:57:45.034Z,28.60
2018-07-19T17:00:13.959Z,28.60
2018-07-19T17:02:42.486Z,28.60
2018-07-19T17:05:11.104Z,28.50
2018-07-19T17:07:39.538Z,28.50
2018-07-19T17:10:08.999Z,28.50
2018-07-19T17:12:38.933Z,28.40
2018-07-19T17:15:08.441Z,28.40
2018-07-19T17:17:37.766Z,28.20
2018-07-19T17:20:07.555Z,28.20
2018-07-19T17:22:38.043Z,28.10
2018-07-19T17:25:07.844Z,28.10
2018-07-19T17:27:37.566Z,28.00
2018-07-19T17:30:07.945Z,28.00
2018-07-19T17:32:37.789Z,28.00
2018-07-19T17:35:06.771Z,28.00
2018-07-19T17:37:35.780Z,27.90
2018-07-19T17:40:04.704Z,27.90
2018-07-19T17:42:33.166Z,27.90
2018-07-19T17:45:02.302Z,27.90
2018-07-19T17:47:30.788Z,27.90
2018-07-19T17:49:59.641Z,27.80
2018-07-19T17:52:28.876Z,27.90
2018-07-19T17:54:58.312Z,27.80
2018-07-19T17:57:27.567Z,27.80
2018-07-19T17:59:56.678Z,27.80
2018-07-19T18:02:25.960Z,27.80
2018-07-19T18:04:55.038Z,27.80
2018-07-19T18:07:24.187Z,27.80
2018-07-19T18:09:53.222Z,27.80
2018-07-19T18:12:22.495Z,27.70
2018-07-19T18:14:53.242Z,27.80
2018-07-19T18:17:22.517Z,27.70
2018-07-19T18:19:51.129Z,27.70
2018-07-19T18:22:19.858Z,27.70
2018-07-19T18:24:48.461Z,27.70
2018-07-19T18:27:18.069Z,27.70
2018-07-19T18:29:46.837Z,27.70
2018-07-19T18:32:15.498Z,27.70
2018-07-19T18:34:43.694Z,27.70
2018-07-19T18:37:12.154Z,27.60
2018-07-19T18:39:40.575Z,27.70
2018-07-19T18:42:09.492Z,27.60
2018-07-19T18:44:38.339Z,27.60
2018-07-19T18:47:07.666Z,27.60
2018-07-19T18:49:36.577Z,27.60
2018-07-19T18:52:05.680Z,27.60
2018-07-19T18:54:34.145Z,27.60
2018-07-19T18:57:02.575Z,27.60
2018-07-19T18:59:31.080Z,27.60
2018-07-19T19:01:59.523Z,27.60
2018-07-19T19:04:28.113Z,27.60
2018-07-19T19:06:56.577Z,27.50
2018-07-19T19:09:25.026Z,27.50
2018-07-19T19:11:53.471Z,27.50
2018-07-19T19:14:21.914Z,27.50
2018-07-19T19:16:50.358Z,27.50
2018-07-19T19:19:18.794Z,27.50
2018-07-19T19:21:47.242Z,27.50
2018-07-19T19:24:15.723Z,27.50
2018-07-19T19:26:44.215Z,27.40
2018-07-19T19:29:13.912Z,27.50
2018-07-19T19:31:42.333Z,27.40
2018-07-19T19:34:11.310Z,27.40
2018-07-19T19:36:40.217Z,27.40
2018-07-19T19:39:10.804Z,27.40
2018-07-19T19:41:39.388Z,27.40
2018-07-19T19:44:08.015Z,27.40
2018-07-19T19:46:37.576Z,27.40
2018-07-19T19:49:06.644Z,27.40
2018-07-19T19:51:35.741Z,27.40
2018-07-19T19:54:04.220Z,27.30
2018-07-19T19:56:32.679Z,27.30
2018-07-19T19:59:01.124Z,27.30
2018-07-19T20:01:29.601Z,27.30
2018-07-19T20:03:58.035Z,27.30
2018-07-19T20:06:26.485Z,27.30
2018-07-19T20:08:54.996Z,27.30
2018-07-19T20:11:23.493Z,27.20
2018-07-19T20:13:51.889Z,27.20
2018-07-19T20:16:20.490Z,27.30
2018-07-19T20:18:49.030Z,27.20
2018-07-19T20:21:17.843Z,27.30
2018-07-19T20:23:46.455Z,27.20
2018-07-19T20:26:15.124Z,27.20
2018-07-19T20:28:43.621Z,27.20
2018-07-19T20:31:12.136Z,27.20
2018-07-19T20:33:40.846Z,27.20
2018-07-19T20:36:09.330Z,27.20
2018-07-19T20:38:37.889Z,27.20
2018-07-19T20:41:07.273Z,27.20
2018-07-19T20:43:35.793Z,27.20
2018-07-19T20:46:04.244Z,27.10
2018-07-19T20:48:32.717Z,27.10
2018-07-19T20:51:01.252Z,27.10
2018-07-19T20:53:29.712Z,27.10
2018-07-19T20:55:58.330Z,27.10
2018-07-19T20:58:26.758Z,27.10
2018-07-19T21:00:55.188Z,27.10
2018-07-19T21:03:23.782Z,27.10
2018-07-19T21:05:52.218Z,27.10
2018-07-19T21:08:20.671Z,27.10
2018-07-19T21:10:49.098Z,27.10
2018-07-19T21:13:17.553Z,27.10
2018-07-19T21:15:45.977Z,27.10
2018-07-19T21:18:14.469Z,27.10
2018-07-19T21:20:42.877Z,27.10
2018-07-19T21:23:11.762Z,27.10
2018-07-19T21:25:40.362Z,27.00
2018-07-19T21:28:08.813Z,27.00
2018-07-19T21:30:37.969Z,27.00
2018-07-19T21:33:07.650Z,27.00
2018-07-19T21:35:36.575Z,27.00
2018-07-19T21:38:05.704Z,27.00
2018-07-19T21:40:34.145Z,27.00
2018-07-19T21:43:02.587Z,27.00
2018-07-19T21:45:31.042Z,27.00
2018-07-19T21:47:59.497Z,27.00
2018-07-19T21:50:27.944Z,27.00
2018-07-19T21:52:56.416Z,27.00
2018-07-19T21:55:24.885Z,27.00
2018-07-19T21:57:53.346Z,27.00
2018-07-19T22:00:21.781Z,26.90
2018-07-19T22:02:50.217Z,26.90
2018-07-19T22:05:18.665Z,27.00
2018-07-19T22:07:47.098Z,26.90
2018-07-19T22:10:15.543Z,27.00
2018-07-19T22:12:43.965Z,27.00
2018-07-19T22:15:12.397Z,26.90
2018-07-19T22:17:40.834Z,26.90
2018-07-19T22:20:09.302Z,26.90
2018-07-19T22:22:38.872Z,26.90
2018-07-19T22:25:08.805Z,26.90
2018-07-19T22:27:37.947Z,26.90
2018-07-19T22:30:07.454Z,26.90
2018-07-19T22:32:36.586Z,26.90
2018-07-19T22:35:05.715Z,26.90
2018-07-19T22:37:34.157Z,26.90
2018-07-19T22:40:02.597Z,26.80
2018-07-19T22:42:31.044Z,26.90
2018-07-19T22:44:59.480Z,26.90
2018-07-19T22:47:27.912Z,26.90
2018-07-19T22:49:56.376Z,26.90
2018-07-19T22:52:24.829Z,26.90
2018-07-19T22:54:53.297Z,26.90
2018-07-19T22:57:21.721Z,26.90
2018-07-19T22:59:50.150Z,26.90
2018-07-19T23:02:18.585Z,26.90
2018-07-19T23:04:47.024Z,26.90
2018-07-19T23:07:15.505Z,26.80
2018-07-19T23:09:44.568Z,26.80
2018-07-19T23:12:13.726Z,26.80
2018-07-19T23:14:43.785Z,26.80
2018-07-19T23:17:12.978Z,26.80
2018-07-19T23:19:42.083Z,26.80
2018-07-19T23:22:10.236Z,26.80
2018-07-19T23:24:38.808Z,26.80
2018-07-19T23:27:07.428Z,26.70
2018-07-19T23:29:35.888Z,26.80
2018-07-19T23:32:04.493Z,26.80
2018-07-19T23:34:33.072Z,26.80
2018-07-19T23:37:09.042Z,26.70
2018-07-19T23:39:43.763Z,26.80
2018-07-19T23:42:28.572Z,26.70
2018-07-19T23:45:07.991Z,26.70
2018-07-19T23:47:38.389Z,26.70
2018-07-19T23:50:06.820Z,26.70
2018-07-19T23:52:35.233Z,26.70
2018-07-19T23:55:03.673Z,26.70
2018-07-19T23:57:32.122Z,26.70
